• Join FlightAware (Why Join?)
  • Login
  • US Flag 
07:38PM EDT


 

Airport Tracker/Info


-or-


 

Live Flight TrackerFlight Track Log ✈ RPA3143 ✈ 16-Jul-2013 ✈ KPIT - KDCA

Flight Track Log - Related Links

Times and Time Zones

All times are in EDT time to prevent confusion due to time zone crossing. See the RPA3143 flight status page for this flight to view local times or setup timezone preferences in your user account.

Time Position Orientation Groundspeed Altitude Reporting Facility
EDT Latitude Longitude Course Direction KTS MPH feet Rate Location/Type
05:58AM 40.4608 -80.3075 161° South 174 200 4,400  Level Cleveland Center
05:59AM 40.3463 -79.9365 164° South  Level Estimated
05:59AM 40.3856 -80.2725 160° South 218 251 6,900  Level Cleveland Center
06:00AM 40.2659 -79.9880 206° Southwest  Level FlightAware Approximate
06:00AM 40.3106 -80.2344 159° South 259 298 9,700  Level Cleveland Center
06:01AM 40.2199 -79.8875 162° South  Level Estimated
06:01AM 40.2269 -80.1942 160° South 317 365 11,500  Level Cleveland Center
06:02AM 40.1739 -79.7872 166° South  Level Estimated
06:02AM 40.1372 -80.1486 159° South 352 405 13,000  Level Cleveland Center
06:03AM 40.1277 -79.6870 161° South  Level Estimated
06:03AM 40.0536 -80.1058 159° South 365 420 14,700  Level Cleveland Center
06:04AM 39.9556 -80.0578 159° South 371 427 16,600 1,620 Climbing Cleveland Center
06:05AM 39.8697 -79.9772 144° Southeast 371 427 18,000 1,260 Climbing Cleveland Center
06:07AM 39.6936 -79.7636 137° Southeast 395 455 20,700 1,320 Climbing Washington Center
06:08AM 39.6075 -79.6642 138° Southeast 407 468 22,100 1,140 Climbing Washington Center
06:09AM 39.5233 -79.5625 137° Southeast 412 474 23,000 420 Climbing Washington Center
06:10AM 39.4625 -79.4411 123° Southeast 400 460 23,000  Level Washington Center
06:11AM 39.4294 -79.3022 107° East 400 460 23,000  Level Washington Center
06:12AM 39.3894 -79.1767 112° Southeast 400 460 23,000  Level Washington Center
06:13AM 39.3539 -79.0381 108° East 405 466 23,000  Level Washington Center
06:14AM 39.3139 -78.9019 111° Southeast 405 466 23,000  Level Washington Center
06:15AM 39.2758 -78.7661 110° East 405 466 23,000 -1,080 Level Washington Center
06:16AM 39.2378 -78.6278 110° East 410 472 20,900 -2,280 Descending Washington Center
06:17AM 39.1994 -78.4950 110° East 405 466 18,600 -1,980 Descending Washington Center
06:18AM 39.1628 -78.3675 110° East 392 451 17,000 -840 Descending Washington Center
06:19AM 39.1303 -78.2406 108° East 381 438 17,000  Level Washington Center
06:20AM 39.1017 -78.1139 106° East 371 427 17,000 -840 Level Washington Center
06:21AM 39.0686 -77.9925 109° East 371 427 15,400 -1,860 Descending Washington Center
06:22AM 39.0378 -77.8631 107° East 355 409 13,300 -1,920 Descending Washington Center
06:23AM 39.0106 -77.7661 110° East 332 382 11,700 -1,740 Descending Washington Center
06:24AM 38.9811 -77.6558 109° East 309 356 10,000 -1,320 Descending Washington Center
06:26AM 38.9333 -77.5333 117° Southeast 299 344 8,800 -960 Descending Potomac TRACON
06:26AM 38.9167 -77.4500 104° East 293 337 8,000 -1,200 Descending Potomac TRACON
06:28AM 38.8667 -77.3500 123° Southeast 288 331 6,500 -960 Descending Potomac TRACON
06:29AM 38.8333 -77.2500 113° Southeast 284 327 6,000 -300 Descending Potomac TRACON
06:30AM 38.8000 -77.1833 123° Southeast 246 283 6,000 -600 Level Potomac TRACON
06:31AM 38.7500 -77.1167 134° Southeast 241 277 4,900 -1,260 Descending Potomac TRACON
06:32AM 38.7167 -77.0833 142° Southeast 232 267 3,700 -1,200 Descending Potomac TRACON